CheckWX is a tool to help pilots better visualize weather data.  It is not intended as a substitute for an official pre-flight weather briefing.

03:13:01 UTC

KRZR METAR
Cleveland Regional Jetport Airport
Cleveland, Tennessee, USA
Current

18 mins ago

KRZR 260255Z AUTO 00000KT 5SM BR BKN060 OVC070 24/22 A3011 RMK A01
Observed
May-26 @ 02:55 UTC
Visibility
5 SM
Flight Rules
MVFR
Conditions
Mist
Cloud Levels
  • Broken at 6,000' AGL
  • Overcast at 7,000' AGL
Temperature
24°C / 75°F
Dewpoint
22°C / 72°F
Humidity
89%
Altimeter
30.11" Hg
Pressure
1019.62 hPa
Previous

38 mins ago

KRZR 260235Z AUTO 00000KT 5SM BR BKN060 OVC075 24/22 A3012 RMK A01
Observed
May-26 @ 02:35 UTC
Visibility
5 SM
Flight Rules
MVFR
Conditions
Mist
Cloud Levels
  • Broken at 6,000' AGL
  • Overcast at 7,500' AGL
Temperature
24°C / 75°F
Dewpoint
22°C / 72°F
Humidity
89%
Altimeter
30.12" Hg
Pressure
1020.02 hPa
Previous

58 mins ago

KRZR 260215Z AUTO 00000KT 5SM HZ BKN060 BKN075 24/22 A3011 RMK A01
Observed
May-26 @ 02:15 UTC
Visibility
5 SM
Flight Rules
MVFR
Conditions
Haze
Cloud Levels
  • Broken at 6,000' AGL
  • Broken at 7,500' AGL
Temperature
24°C / 75°F
Dewpoint
22°C / 72°F
Humidity
89%
Altimeter
30.11" Hg
Pressure
1019.62 hPa